Terminal Aerodrome Forecast
Issued by NWS Denver/Boulder, CO

Home | Current Version | Previous Version | Text Only | Print | Product List | Glossary On
Versions: 1 2 3 4 5 6 7 8 9 10 11 12 13 14 15 16 17 18 19 20 21 22 23 24 25 26 27 28 29 30 31 32 33 34 35 36 37 38 39 40 41 42 43 44 45 46 47 48 49 50
000
FTUS45 KBOU 221207 AAA
TAFDEN
TAF AMD
KDEN 221207Z 2212/2318 09010KT P6SM -RA SCT008 BKN015 OVC040
      TEMPO 2212/2216 5SM -RA BKN007 OVC015
     FM221700 08007KT P6SM VCSH SCT050 BKN070
     FM221900 09007KT P6SM SCT050 SCT090
     FM222200 08008KT P6SM VCSH SCT040 BKN070
      TEMPO 2222/2302 4SM -TSRA BKN030CB
     FM230200 03008KT P6SM VCTS SCT030CB OVC050 PROB30 2302/2306 4SM
      -SHRA SCT008 BKN020
     FM230700 11005KT 5SM BR BKN012 OVC025
     FM231000 08005KT 2SM BR BKN009 OVC015
      TEMPO 2311/2314 3/4SM BR BKN004
     FM231600 VRB04KT P6SM SCT007 SCT050=

USA.gov is the U.S. government's official web portal to all federal, state and local government web resources and services.